Time;durP1;ratioP1;P1;durP2;ratioP2;P2;SDS_P1;SDS_P2;PMS_P1;PMS_P2;Temp;Humidity;BMP_temperature;BMP_pressure;BME280_temperature;BME280_humidity;BME280_pressure;Samples;Min_cycle;Max_cycle;Signal;HPM_P1;HPM_P2
2023/09/29 00:00:18;;;;;;;1.60;1.50;;;11.80;99.90;;;;;;5023322;28;20068;-75
2023/09/29 00:02:46;;;;;;;1.50;1.40;;;11.80;99.90;;;;;;5039938;28;20028;-75
2023/09/29 00:05:14;;;;;;;1.65;1.45;;;11.80;99.90;;;;;;5039336;28;20393;-75
2023/09/29 00:07:40;;;;;;;3.38;2.00;;;11.80;99.90;;;;;;5037375;28;20484;-75
2023/09/29 00:10:10;;;;;;;9.88;2.90;;;11.80;99.90;;;;;;5039551;28;20129;-75
2023/09/29 00:12:39;;;;;;;2.05;1.63;;;11.80;99.90;;;;;;5020539;28;20146;-75
2023/09/29 00:15:06;;;;;;;1.73;1.60;;;11.80;99.90;;;;;;5043356;28;20041;-75
2023/09/29 00:17:33;;;;;;;2.15;1.65;;;11.70;99.90;;;;;;5057436;28;20089;-75
2023/09/29 00:19:59;;;;;;;1.88;1.52;;;11.60;99.90;;;;;;5040778;28;20017;-75
2023/09/29 00:22:26;;;;;;;3.55;2.10;;;11.60;99.90;;;;;;5038721;28;20044;-75
2023/09/29 00:24:53;;;;;;;2.40;2.13;;;11.50;99.90;;;;;;5057664;28;20021;-76
2023/09/29 00:27:18;;;;;;;2.53;1.63;;;11.60;99.90;;;;;;5057691;28;20002;-75
2023/09/29 00:29:45;;;;;;;4.32;2.15;;;11.60;99.90;;;;;;5057605;28;20053;-75
2023/09/29 00:32:11;;;;;;;2.33;2.13;;;11.80;99.90;;;;;;5057843;28;20018;-75
2023/09/29 00:34:38;;;;;;;3.60;2.90;;;11.90;99.90;;;;;;5040835;28;20039;-75
2023/09/29 00:37:25;;;;;;;2.40;1.87;;;11.90;99.90;;;;;;5057117;28;20044;-75
2023/09/29 00:39:57;;;;;;;2.08;1.98;;;11.80;99.90;;;;;;5058331;28;20010;-75
2023/09/29 00:42:30;;;;;;;5.57;2.00;;;11.70;99.90;;;;;;5057983;28;20097;-75
2023/09/29 00:45:28;;;;;;;1.70;1.60;;;11.70;99.90;;;;;;5040895;28;20012;-76
2023/09/29 00:48:10;;;;;;;3.63;1.88;;;11.60;99.90;;;;;;5041170;28;20084;-76
2023/09/29 00:50:38;;;;;;;3.03;2.15;;;11.50;99.90;;;;;;5024413;28;20029;-75
2023/09/29 00:53:11;;;;;;;2.92;1.77;;;11.50;99.90;;;;;;5036115;28;20048;-76
2023/09/29 00:55:41;;;;;;;2.25;2.03;;;11.60;99.90;;;;;;5036257;28;20487;-75
2023/09/29 00:58:31;;;;;;;3.47;2.33;;;11.60;99.90;;;;;;5057635;28;20014;-75
2023/09/29 01:00:57;;;;;;;6.80;3.05;;;11.50;99.90;;;;;;5057678;28;20015;-76
2023/09/29 01:03:50;;;;;;;1.98;1.75;;;11.50;99.90;;;;;;5057974;28;20030;-75
2023/09/29 01:06:34;;;;;;;1.60;1.50;;;11.40;99.90;;;;;;5057564;28;20163;-75
2023/09/29 01:09:05;;;;;;;1.90;1.75;;;11.40;99.90;;;;;;5057669;28;20014;-76
2023/09/29 01:11:43;;;;;;;1.45;1.35;;;11.40;99.90;;;;;;5058178;28;20087;-76
2023/09/29 01:14:12;;;;;;;2.08;1.48;;;11.30;99.90;;;;;;5057675;28;20056;-75
2023/09/29 01:17:04;;;;;;;2.17;1.98;;;11.20;99.90;;;;;;5057609;28;20025;-76
2023/09/29 01:19:41;;;;;;;2.50;2.30;;;11.00;99.90;;;;;;5057841;28;20007;-75
2023/09/29 01:22:07;;;;;;;2.67;1.77;;;11.00;99.90;;;;;;5058055;28;20067;-75
2023/09/29 01:24:32;;;;;;;4.15;2.33;;;11.10;99.90;;;;;;5058075;28;20132;-76
2023/09/29 01:26:59;;;;;;;2.15;2.03;;;11.10;99.90;;;;;;5040886;28;20025;-76
2023/09/29 01:29:25;;;;;;;1.80;1.65;;;11.10;99.90;;;;;;5058085;28;20008;-77
2023/09/29 01:31:50;;;;;;;2.47;2.28;;;11.20;99.90;;;;;;5057454;28;20010;-75
2023/09/29 01:34:16;;;;;;;2.20;2.00;;;11.10;99.90;;;;;;5058013;28;20021;-75
2023/09/29 01:36:41;;;;;;;2.75;1.63;;;11.10;99.90;;;;;;5058263;28;20013;-76
2023/09/29 01:39:08;;;;;;;1.90;1.45;;;11.10;99.90;;;;;;5041283;28;20002;-76
2023/09/29 01:41:34;;;;;;;2.00;1.90;;;11.20;99.90;;;;;;5041401;28;20032;-75
2023/09/29 01:43:59;;;;;;;2.88;2.40;;;11.20;99.90;;;;;;5042038;28;20052;-76
2023/09/29 01:46:25;;;;;;;4.53;1.75;;;11.10;99.90;;;;;;5035607;28;20031;-75
2023/09/29 01:48:50;;;;;;;4.85;2.22;;;11.20;99.90;;;;;;5035401;28;20021;-75
2023/09/29 01:51:17;;;;;;;10.88;2.45;;;11.20;99.90;;;;;;5034914;28;20397;-76
2023/09/29 01:53:48;;;;;;;1.95;1.77;;;11.20;99.90;;;;;;5035610;28;20025;-75
2023/09/29 01:56:15;;;;;;;4.45;1.73;;;11.20;99.90;;;;;;5036236;28;20029;-75
2023/09/29 01:59:01;;;;;;;3.17;2.80;;;11.10;99.90;;;;;;5026708;28;20021;-76
2023/09/29 02:01:37;;;;;;;3.20;2.47;;;11.00;99.90;;;;;;5058686;28;20010;-75
2023/09/29 02:04:04;;;;;;;1.70;1.60;;;11.00;99.90;;;;;;5058538;28;20044;-75
2023/09/29 02:06:34;;;;;;;2.60;2.15;;;11.00;99.90;;;;;;5058216;28;20041;-79
2023/09/29 02:09:16;;;;;;;2.13;2.03;;;10.90;99.90;;;;;;5057696;28;20025;-75
2023/09/29 02:11:44;;;;;;;5.97;2.60;;;11.00;99.90;;;;;;5058442;28;20009;-75
2023/09/29 02:14:30;;;;;;;2.63;2.00;;;11.00;99.90;;;;;;5057145;28;20056;-74
2023/09/29 02:17:16;;;;;;;3.20;2.33;;;11.10;99.90;;;;;;5041616;28;20030;-75
2023/09/29 02:19:41;;;;;;;4.60;1.70;;;11.00;99.90;;;;;;5058562;28;20026;-75
2023/09/29 02:22:07;;;;;;;2.00;1.80;;;11.00;99.90;;;;;;5058327;28;20037;-75
2023/09/29 02:24:36;;;;;;;3.20;1.50;;;11.00;99.90;;;;;;5058516;28;20036;-76
2023/09/29 02:27:02;;;;;;;1.83;1.73;;;10.90;99.90;;;;;;5058668;28;20029;-76
2023/09/29 02:29:28;;;;;;;3.10;2.83;;;10.90;99.90;;;;;;5041609;28;20026;-75
2023/09/29 02:32:00;;;;;;;2.00;1.90;;;10.90;99.90;;;;;;5058462;28;20018;-75
2023/09/29 02:34:45;;;;;;;2.38;2.17;;;10.90;99.90;;;;;;5043806;28;20021;-75
2023/09/29 02:37:22;;;;;;;2.25;2.08;;;11.00;99.90;;;;;;5058671;28;20040;-77
2023/09/29 02:39:47;;;;;;;4.90;2.17;;;11.00;99.90;;;;;;5052202;28;20025;-75
2023/09/29 02:42:13;;;;;;;3.88;2.40;;;11.00;99.90;;;;;;5035597;28;20500;-75
2023/09/29 02:44:39;;;;;;;2.55;2.35;;;11.00;99.90;;;;;;5036193;28;20496;-75
2023/09/29 02:47:06;;;;;;;2.03;1.75;;;11.00;99.90;;;;;;5035246;28;20013;-76
2023/09/29 02:49:33;;;;;;;2.20;1.80;;;11.00;99.90;;;;;;5035761;28;20032;-76
2023/09/29 02:51:59;;;;;;;4.57;1.58;;;11.00;99.90;;;;;;5035652;28;20021;-76
2023/09/29 02:54:25;;;;;;;2.22;2.00;;;11.20;99.90;;;;;;5035896;28;20030;-75
2023/09/29 02:56:51;;;;;;;2.38;2.15;;;11.10;99.90;;;;;;5036193;28;20028;-76
2023/09/29 02:59:18;;;;;;;2.33;1.95;;;11.00;99.90;;;;;;5035032;28;20492;-76
2023/09/29 03:01:44;;;;;;;4.18;2.53;;;11.00;99.90;;;;;;5046546;28;20109;-75
2023/09/29 03:04:33;;;;;;;7.28;1.88;;;10.90;99.90;;;;;;5046832;28;20029;-75
2023/09/29 03:06:59;;;;;;;;;;;10.80;99.90;;;;;;5039510;28;20068;-76
2023/09/29 03:10:00;;;;;;;4.63;2.33;;;10.90;99.90;;;;;;5059482;28;19905;-75
2023/09/29 03:12:25;;;;;;;4.03;2.00;;;10.80;99.90;;;;;;5040035;28;20022;-76
2023/09/29 03:14:51;;;;;;;2.85;2.35;;;10.80;99.90;;;;;;5038417;28;20033;-75
2023/09/29 03:17:17;;;;;;;6.18;2.88;;;10.70;99.90;;;;;;5038889;28;20022;-76
2023/09/29 03:19:44;;;;;;;4.35;2.53;;;10.70;99.90;;;;;;5038820;28;20025;-76
2023/09/29 03:22:13;;;;;;;9.63;3.42;;;10.80;99.90;;;;;;5052329;28;20045;-76
2023/09/29 03:24:50;;;;;;;4.00;2.72;;;10.90;99.90;;;;;;5058980;28;20049;-75
2023/09/29 03:27:36;;;;;;;2.78;2.15;;;10.90;99.90;;;;;;5058037;28;20029;-75
2023/09/29 03:30:05;;;;;;;4.05;2.67;;;10.90;99.90;;;;;;5058814;28;20001;-76
2023/09/29 03:32:31;;;;;;;5.47;2.47;;;10.80;99.90;;;;;;5040054;28;20037;-76
2023/09/29 03:34:57;;;;;;;2.55;2.30;;;10.80;99.90;;;;;;5059057;28;20022;-75
2023/09/29 03:37:23;;;;;;;5.10;2.15;;;10.80;99.90;;;;;;5059120;28;20221;-76
2023/09/29 03:39:49;;;;;;;7.22;2.75;;;10.80;99.90;;;;;;5055807;28;20021;-75
2023/09/29 03:42:20;;;;;;;4.80;1.80;;;10.80;99.90;;;;;;5060354;28;20048;-75
2023/09/29 03:45:09;;;;;;;2.97;2.58;;;10.80;99.90;;;;;;5059230;28;20060;-75
2023/09/29 03:47:57;;;;;;;3.50;2.38;;;10.70;99.90;;;;;;5058938;28;20025;-75
2023/09/29 03:50:22;;;;;;;2.92;2.20;;;10.70;99.90;;;;;;5042915;28;20121;-75
2023/09/29 03:52:48;;;;;;;9.00;3.47;;;10.60;99.90;;;;;;5059836;28;20013;-75
2023/09/29 03:55:14;;;;;;;2.42;2.22;;;10.60;99.90;;;;;;5042775;28;20033;-75
2023/09/29 03:57:44;;;;;;;4.45;2.45;;;10.60;99.90;;;;;;5037852;28;20025;-75
2023/09/29 04:00:14;;;;;;;2.60;1.90;;;10.50;99.90;;;;;;5046030;28;20032;-75
2023/09/29 04:02:43;;;;;;;2.25;2.00;;;10.60;99.90;;;;;;5037783;28;20021;-75
2023/09/29 04:05:09;;;;;;;6.95;2.03;;;10.60;99.90;;;;;;5039176;28;20416;-75
2023/09/29 04:07:37;;;;;;;2.60;2.33;;;10.60;99.90;;;;;;5038908;28;20079;-75
2023/09/29 04:10:05;;;;;;;4.75;2.65;;;10.50;99.90;;;;;;5037921;28;20029;-75
2023/09/29 04:12:30;;;;;;;4.60;2.13;;;10.50;99.90;;;;;;5019924;28;20056;-75
2023/09/29 04:14:56;;;;;;;4.20;2.15;;;10.60;99.90;;;;;;5037487;28;20065;-75
2023/09/29 04:17:22;;;;;;;10.50;2.78;;;10.60;99.90;;;;;;5037325;28;20351;-75
2023/09/29 04:19:48;;;;;;;6.93;3.05;;;10.60;99.90;;;;;;5019163;28;20147;-75
2023/09/29 04:22:14;;;;;;;5.43;2.92;;;10.60;99.90;;;;;;5036739;28;20098;-76
2023/09/29 04:24:44;;;;;;;26.55;3.22;;;10.70;99.90;;;;;;5020946;28;20377;-75
2023/09/29 04:27:09;;;;;;;2.00;1.85;;;10.70;99.90;;;;;;5045138;28;20038;-75
2023/09/29 04:29:35;;;;;;;2.97;2.20;;;10.80;99.90;;;;;;5045721;28;20025;-75
2023/09/29 04:32:02;;;;;;;4.45;2.28;;;10.70;99.90;;;;;;5028593;28;20026;-75
2023/09/29 04:34:30;;;;;;;2.50;2.30;;;10.60;99.90;;;;;;5045028;28;20370;-75
2023/09/29 04:36:55;;;;;;;3.90;2.35;;;10.50;99.90;;;;;;5042999;28;20413;-75
2023/09/29 04:39:22;;;;;;;3.13;2.83;;;10.60;99.90;;;;;;5042155;28;20041;-75
2023/09/29 04:41:48;;;;;;;7.00;2.15;;;10.60;99.90;;;;;;5023950;28;20111;-75
2023/09/29 04:44:18;;;;;;;2.70;2.50;;;10.50;99.90;;;;;;5045545;28;20088;-75
2023/09/29 04:47:08;;;;;;;5.45;2.95;;;10.50;99.90;;;;;;5050827;28;20040;-77
2023/09/29 04:49:56;;;;;;;13.88;2.78;;;10.50;99.90;;;;;;5059321;28;20033;-76
2023/09/29 04:52:54;;;;;;;2.63;2.08;;;10.50;99.90;;;;;;5042264;28;20005;-76
2023/09/29 04:55:28;;;;;;;3.80;2.45;;;10.50;99.90;;;;;;5041072;28;20084;-76
2023/09/29 04:58:02;;;;;;;3.33;2.60;;;10.50;99.90;;;;;;5055866;28;20033;-76
2023/09/29 05:00:31;;;;;;;2.90;2.33;;;10.50;99.90;;;;;;5034858;28;20021;-76
2023/09/29 05:02:57;;;;;;;1.92;1.83;;;10.40;99.90;;;;;;5034414;28;20516;-75
2023/09/29 05:05:23;;;;;;;4.63;2.17;;;10.30;99.90;;;;;;5028173;28;20022;-76
2023/09/29 05:07:48;;;;;;;4.10;2.30;;;10.20;99.90;;;;;;5037146;28;20108;-76
2023/09/29 05:10:14;;;;;;;7.88;2.13;;;10.20;99.90;;;;;;5036461;28;20025;-76
2023/09/29 05:12:41;;;;;;;4.50;2.20;;;10.10;99.90;;;;;;5019459;28;20075;-76
2023/09/29 05:15:10;;;;;;;2.38;1.80;;;10.00;99.90;;;;;;5038750;28;20565;-76
2023/09/29 05:17:36;;;;;;;2.15;1.95;;;10.00;99.90;;;;;;5047695;28;20009;-76
2023/09/29 05:20:05;;;;;;;2.30;1.80;;;10.00;99.90;;;;;;5045100;28;20060;-76
2023/09/29 05:22:31;;;;;;;2.47;2.28;;;10.10;99.90;;;;;;5043306;28;20143;-76
2023/09/29 05:25:01;;;;;;;1.83;1.73;;;10.10;99.90;;;;;;5028215;28;20037;-76
2023/09/29 05:27:31;;;;;;;2.22;1.98;;;10.20;99.90;;;;;;5046218;28;20028;-78
2023/09/29 05:29:57;;;;;;;3.13;2.35;;;10.10;99.90;;;;;;5044919;28;20013;-77
2023/09/29 05:32:23;;;;;;;8.77;1.70;;;10.10;99.90;;;;;;5027351;28;20018;-77
2023/09/29 05:34:49;;;;;;;2.80;2.60;;;10.20;99.90;;;;;;5044098;28;20211;-78
2023/09/29 05:37:17;;;;;;;1.90;1.70;;;10.20;99.90;;;;;;5021365;28;20032;-79
2023/09/29 05:39:43;;;;;;;2.33;2.13;;;10.20;99.90;;;;;;5016576;28;20025;-78
2023/09/29 05:42:10;;;;;;;11.18;3.13;;;10.20;99.90;;;;;;5034049;28;20025;-77
2023/09/29 05:44:36;;;;;;;3.53;3.22;;;10.20;99.90;;;;;;5016749;28;20024;-77
2023/09/29 05:47:02;;;;;;;7.30;2.13;;;10.20;99.90;;;;;;5018387;28;20025;-76
2023/09/29 05:49:28;;;;;;;2.03;1.83;;;10.20;99.90;;;;;;5034073;28;20025;-77
2023/09/29 05:51:54;;;;;;;3.45;3.03;;;10.30;99.90;;;;;;5033848;28;20057;-77
2023/09/29 05:54:19;;;;;;;4.63;2.10;;;10.30;99.90;;;;;;5033567;28;20071;-77
2023/09/29 05:56:45;;;;;;;5.80;1.98;;;10.30;99.90;;;;;;5016249;28;20112;-76
2023/09/29 05:59:11;;;;;;;2.70;2.25;;;10.40;99.90;;;;;;5034224;28;20026;-76
2023/09/29 06:01:36;;;;;;;3.83;2.35;;;10.40;99.90;;;;;;5036622;28;20128;-76
2023/09/29 06:04:02;;;;;;;2.78;2.53;;;10.50;99.90;;;;;;5035678;28;20151;-76
2023/09/29 06:06:28;;;;;;;2.55;2.25;;;10.60;99.90;;;;;;5033876;28;20025;-77
2023/09/29 06:08:54;;;;;;;2.83;2.15;;;10.60;99.90;;;;;;5015781;28;20025;-77
2023/09/29 06:11:20;;;;;;;10.23;2.97;;;10.70;99.90;;;;;;5033499;28;20029;-77
2023/09/29 06:13:46;;;;;;;5.50;2.55;;;10.80;99.90;;;;;;5033850;28;20030;-77
2023/09/29 06:16:12;;;;;;;2.28;2.05;;;10.70;99.90;;;;;;5016116;28;20050;-77
2023/09/29 06:18:37;;;;;;;7.50;2.28;;;10.90;99.90;;;;;;5033547;28;20477;-77
2023/09/29 06:21:03;;;;;;;3.25;2.65;;;10.90;99.90;;;;;;5015998;28;20033;-76
2023/09/29 06:23:29;;;;;;;3.75;2.00;;;10.90;99.90;;;;;;5035915;28;20079;-77
2023/09/29 06:25:58;;;;;;;3.38;2.95;;;10.90;99.90;;;;;;5033448;28;20060;-77
2023/09/29 06:28:24;;;;;;;;;;;11.00;99.90;;;;;;5033833;28;20044;-76
2023/09/29 06:30:56;;;;;;;2.97;2.42;;;11.00;99.90;;;;;;5015755;28;19905;-77
2023/09/29 06:33:23;;;;;;;8.15;2.00;;;11.10;99.90;;;;;;5033605;28;20374;-77
2023/09/29 06:35:48;;;;;;;7.63;2.08;;;11.10;99.90;;;;;;5018485;28;20033;-78
2023/09/29 06:38:15;;;;;;;4.30;1.98;;;11.20;99.90;;;;;;5037499;28;20112;-77
2023/09/29 06:40:43;;;;;;;1.90;1.73;;;11.30;99.90;;;;;;5037485;28;20381;-78
2023/09/29 06:43:09;;;;;;;3.78;2.03;;;11.40;99.90;;;;;;5037125;28;20167;-77
2023/09/29 06:45:34;;;;;;;5.03;2.95;;;11.40;99.90;;;;;;5037062;28;20513;-77
2023/09/29 06:48:00;;;;;;;4.15;2.45;;;11.50;99.90;;;;;;5037235;28;20021;-78
2023/09/29 06:50:26;;;;;;;2.80;2.30;;;11.70;99.90;;;;;;5037092;28;20104;-78
2023/09/29 06:52:51;;;;;;;5.78;3.03;;;11.80;99.90;;;;;;5037271;28;20021;-77
2023/09/29 06:55:17;;;;;;;2.83;2.22;;;11.90;99.90;;;;;;5019412;28;20486;-78
2023/09/29 06:57:43;;;;;;;2.90;2.45;;;12.00;99.90;;;;;;5037212;28;20077;-77
2023/09/29 07:00:09;;;;;;;6.63;3.45;;;12.20;99.90;;;;;;5037053;28;20026;-77
2023/09/29 07:02:37;;;;;;;5.78;3.50;;;12.30;99.90;;;;;;5018997;28;20045;-78
2023/09/29 07:05:03;;;;;;;2.33;2.13;;;12.50;99.90;;;;;;5036803;28;20035;-78
2023/09/29 07:07:29;;;;;;;2.83;2.63;;;12.70;99.90;;;;;;5036653;28;20025;-78
2023/09/29 07:09:55;;;;;;;3.38;2.55;;;13.00;99.90;;;;;;5018948;28;20112;-78
2023/09/29 07:12:21;;;;;;;2.78;2.58;;;13.30;99.90;;;;;;5018663;28;20033;-78
2023/09/29 07:14:47;;;;;;;2.72;2.47;;;13.60;99.90;;;;;;5018343;28;20033;-77
2023/09/29 07:17:13;;;;;;;3.13;2.22;;;13.80;99.90;;;;;;5035850;28;20029;-78
2023/09/29 07:19:39;;;;;;;3.30;2.47;;;14.10;99.90;;;;;;5017867;28;20109;-78
2023/09/29 07:22:05;;;;;;;2.42;2.22;;;14.30;99.90;;;;;;5017883;28;20061;-78
2023/09/29 07:24:30;;;;;;;8.63;2.67;;;14.50;99.90;;;;;;5035833;28;20033;-77
2023/09/29 07:26:56;;;;;;;4.30;1.98;;;14.60;99.90;;;;;;5035882;28;20033;-77
2023/09/29 07:29:22;;;;;;;3.35;1.77;;;14.70;99.90;;;;;;5036035;28;20025;-78
2023/09/29 07:31:48;;;;;;;7.65;3.35;;;14.90;99.90;;;;;;5018144;28;20034;-78
2023/09/29 07:34:17;;;;;;;2.38;2.17;;;15.00;99.90;;;;;;5017888;28;20037;-78
2023/09/29 07:36:48;;;;;;;3.28;2.38;;;15.10;99.90;;;;;;5017945;28;20466;-78
2023/09/29 07:39:14;;;;;;;6.07;1.88;;;15.20;99.90;;;;;;5017667;28;20044;-78
2023/09/29 07:41:40;;;;;;;7.32;3.25;;;15.30;99.90;;;;;;5035494;28;20018;-78
2023/09/29 07:44:07;;;;;;;4.72;3.13;;;15.40;99.90;;;;;;5035586;28;20021;-79
2023/09/29 07:46:33;;;;;;;2.28;2.08;;;15.50;99.90;;;;;;5034907;28;20025;-78
2023/09/29 07:48:59;;;;;;;5.43;2.58;;;15.60;99.90;;;;;;5017670;28;20459;-77
2023/09/29 07:51:25;;;;;;;4.30;2.72;;;15.70;99.90;;;;;;5017906;28;20116;-78
2023/09/29 07:53:51;;;;;;;4.85;2.65;;;15.80;99.90;;;;;;5017622;28;20462;-78
2023/09/29 07:56:17;;;;;;;2.67;2.47;;;15.90;99.90;;;;;;5017571;28;20124;-79
2023/09/29 07:58:43;;;;;;;2.22;1.92;;;16.00;99.90;;;;;;5036461;28;20049;-78
2023/09/29 08:01:08;;;;;;;2.45;1.92;;;16.00;99.90;;;;;;5035230;28;20100;-78
2023/09/29 08:03:34;;;;;;;4.95;2.78;;;16.00;99.90;;;;;;5035388;28;20032;-78
2023/09/29 08:06:00;;;;;;;5.80;2.17;;;16.10;99.90;;;;;;5035209;28;20147;-78
2023/09/29 08:08:25;;;;;;;3.03;2.33;;;16.20;99.90;;;;;;5037089;28;20041;-78
2023/09/29 08:10:52;;;;;;;3.42;2.33;;;16.20;99.90;;;;;;5017244;28;20036;-78
2023/09/29 08:13:18;;;;;;;2.25;1.95;;;16.30;99.90;;;;;;5017072;28;20370;-78
2023/09/29 08:15:45;;;;;;;2.72;2.25;;;16.30;99.90;;;;;;5034654;28;20044;-78
2023/09/29 08:18:10;;;;;;;8.98;3.30;;;16.60;99.90;;;;;;5034804;28;20389;-78
2023/09/29 08:20:37;;;;;;;7.68;2.55;;;16.50;99.90;;;;;;5036280;28;20100;-78
2023/09/29 08:23:02;;;;;;;6.03;2.47;;;16.60;99.90;;;;;;5034722;28;20044;-78
2023/09/29 08:25:29;;;;;;;3.78;1.75;;;16.80;99.90;;;;;;5017130;28;20033;-78
2023/09/29 08:27:56;;;;;;;2.92;2.63;;;17.00;99.90;;;;;;5034920;28;20014;-85
2023/09/29 08:30:22;;;;;;;4.20;2.83;;;17.40;99.90;;;;;;5016876;28;20057;-79
2023/09/29 08:32:48;;;;;;;4.97;2.75;;;17.70;99.90;;;;;;5016733;28;20068;-78
2023/09/29 08:35:14;;;;;;;3.75;2.22;;;17.70;99.90;;;;;;5034392;28;20045;-78
2023/09/29 08:37:41;;;;;;;4.28;1.92;;;17.90;99.90;;;;;;5016708;28;20351;-78
2023/09/29 08:40:09;;;;;;;6.40;2.88;;;18.20;99.90;;;;;;5034467;28;20025;-79
2023/09/29 08:42:37;;;;;;;3.35;2.55;;;18.60;99.90;;;;;;5037694;28;20017;-78
2023/09/29 08:45:09;;;;;;;3.50;1.92;;;18.60;99.90;;;;;;5024434;28;20040;-77
2023/09/29 08:47:36;;;;;;;5.35;2.40;;;18.40;99.90;;;;;;5023664;28;20028;-79
2023/09/29 08:50:06;;;;;;;5.00;2.88;;;18.40;99.90;;;;;;5035203;28;20030;-78
2023/09/29 08:52:35;;;;;;;2.10;1.95;;;18.30;99.90;;;;;;5033973;28;20096;-78
2023/09/29 08:55:04;;;;;;;4.63;2.78;;;18.20;99.90;;;;;;5015972;28;20124;-78
2023/09/29 08:57:30;;;;;;;2.28;2.05;;;18.20;99.90;;;;;;5035122;28;20087;-77
2023/09/29 08:59:56;;;;;;;3.03;1.95;;;18.30;99.90;;;;;;5039793;28;20096;-78
2023/09/29 09:02:26;;;;;;;3.80;2.17;;;18.40;99.90;;;;;;5020333;28;20026;-79
2023/09/29 09:04:52;;;;;;;4.40;2.08;;;18.50;99.90;;;;;;5015668;28;20025;-79
2023/09/29 09:07:19;;;;;;;2.90;1.42;;;18.70;99.90;;;;;;5016257;28;20503;-78
2023/09/29 09:09:53;;;;;;;3.47;1.95;;;18.80;99.90;;;;;;5016347;28;20030;-78
2023/09/29 09:12:33;;;;;;;2.47;2.28;;;19.00;99.90;;;;;;5016344;28;20083;-78
2023/09/29 09:14:58;;;;;;;3.15;1.85;;;19.10;99.90;;;;;;5033877;28;20036;-79
2023/09/29 09:17:24;;;;;;;2.92;1.95;;;19.30;99.90;;;;;;5033701;28;20034;-79
2023/09/29 09:19:54;;;;;;;4.60;1.90;;;19.40;99.90;;;;;;5033949;28;20022;-79
2023/09/29 09:22:25;;;;;;;;;;;19.50;99.90;;;;;;5016522;28;20033;-78
2023/09/29 09:24:57;;;;;;;5.32;2.33;;;19.80;99.90;;;;;;5015976;28;19936;-80
2023/09/29 09:27:23;;;;;;;5.32;2.78;;;19.90;99.90;;;;;;5033828;28;20025;-79
2023/09/29 09:29:48;;;;;;;6.47;2.25;;;20.00;99.90;;;;;;5016120;28;20072;-78
2023/09/29 09:32:14;;;;;;;2.60;1.95;;;20.10;99.90;;;;;;5016043;28;20497;-80
2023/09/29 09:34:41;;;;;;;4.70;1.73;;;20.20;99.90;;;;;;5033719;28;20038;-82
2023/09/29 09:37:10;;;;;;;3.38;2.20;;;20.30;99.90;;;;;;5015968;28;20021;-80
2023/09/29 09:39:38;;;;;;;6.10;2.47;;;20.50;99.90;;;;;;5015828;28;20053;-79
2023/09/29 09:42:06;;;;;;;4.90;2.45;;;20.70;99.90;;;;;;5034670;28;20029;-79
2023/09/29 09:44:34;;;;;;;1.67;1.55;;;20.80;99.90;;;;;;5020199;28;20056;-78
2023/09/29 09:47:10;;;;;;;3.67;1.90;;;20.90;99.90;;;;;;5015946;28;20413;-79
2023/09/29 09:49:43;;;;;;;2.35;2.15;;;21.10;99.90;;;;;;5015664;28;20029;-78
2023/09/29 09:52:15;;;;;;;2.40;1.55;;;21.30;99.90;;;;;;5015668;28;20460;-80
2023/09/29 09:54:48;;;;;;;3.58;2.08;;;21.70;99.90;;;;;;5033313;28;20477;-81
2023/09/29 09:57:22;;;;;;;3.05;2.05;;;22.10;99.90;;;;;;5033255;28;20034;-79
2023/09/29 09:59:50;;;;;;;2.45;1.98;;;22.30;99.90;;;;;;5015453;28;20430;-78
2023/09/29 10:02:19;;;;;;;1.80;1.45;;;22.60;99.90;;;;;;5033041;28;20021;-78
2023/09/29 10:04:46;;;;;;;2.00;1.80;;;22.90;99.90;;;;;;5015137;28;20163;-78
2023/09/29 10:07:14;;;;;;;4.70;1.90;;;23.20;99.90;;;;;;5015278;28;20052;-78
2023/09/29 10:09:45;;;;;;;5.53;2.33;;;23.50;99.90;;;;;;5015076;28;20021;-77
2023/09/29 10:12:31;;;;;;;2.90;1.65;;;23.40;99.90;;;;;;5032968;28;20021;-78
2023/09/29 10:14:58;;;;;;;3.00;1.98;;;23.40;99.90;;;;;;5032874;28;20026;-79
2023/09/29 10:17:24;;;;;;;3.95;1.75;;;23.50;99.90;;;;;;5015536;28;20123;-78
2023/09/29 10:19:51;;;;;;;6.47;2.53;;;23.40;99.90;;;;;;5015241;28;20470;-79
2023/09/29 10:22:25;;;;;;;3.92;2.90;;;23.50;99.90;;;;;;5015010;28;20042;-79
2023/09/29 10:24:57;;;;;;;4.05;1.88;;;23.50;99.90;;;;;;5032865;28;20032;-79
2023/09/29 10:27:33;;;;;;;4.75;2.33;;;23.60;99.90;;;;;;5015334;28;20490;-80
2023/09/29 10:30:13;;;;;;;3.30;1.95;;;23.70;99.90;;;;;;5032995;28;20061;-78
2023/09/29 10:32:38;;;;;;;1.95;1.70;;;23.70;99.90;;;;;;5015513;28;20031;-80
2023/09/29 10:35:05;;;;;;;3.10;2.38;;;23.90;99.90;;;;;;5015627;28;20124;-81
2023/09/29 10:37:41;;;;;;;2.08;1.80;;;24.00;99.90;;;;;;5032824;28;20028;-82
2023/09/29 10:40:08;;;;;;;2.70;1.80;;;24.20;99.90;;;;;;5032860;28;20139;-80
2023/09/29 10:42:38;;;;;;;3.45;2.17;;;24.30;99.90;;;;;;5015133;28;20633;-81
2023/09/29 10:45:05;;;;;;;5.53;2.40;;;24.40;99.90;;;;;;5015098;28;20417;-80
2023/09/29 10:47:34;;;;;;;9.98;2.47;;;24.60;99.90;;;;;;5015166;28;20230;-80
2023/09/29 10:50:10;;;;;;;5.00;2.20;;;24.70;99.90;;;;;;5032775;28;20079;-81
2023/09/29 10:52:36;;;;;;;1.83;1.73;;;24.70;99.90;;;;;;5032901;28;20025;-80
2023/09/29 10:55:04;;;;;;;3.67;1.80;;;24.70;99.90;;;;;;5014787;28;20064;-80
2023/09/29 10:57:30;;;;;;;2.20;2.00;;;24.80;99.90;;;;;;5015100;28;20484;-80
2023/09/29 10:59:59;;;;;;;2.20;1.63;;;24.90;99.90;;;;;;5032797;28;20091;-78
2023/09/29 11:02:33;;;;;;;3.55;1.88;;;25.20;99.90;;;;;;5032294;28;20543;-79
2023/09/29 11:05:07;;;;;;;4.53;1.90;;;25.30;99.90;;;;;;5032560;28;20036;-78
2023/09/29 11:07:47;;;;;;;6.68;1.83;;;25.40;99.90;;;;;;5035450;28;20025;-78
2023/09/29 11:10:13;;;;;;;2.47;2.28;;;25.40;99.90;;;;;;5035070;28;20469;-79
2023/09/29 11:12:43;;;;;;;2.50;1.90;;;25.50;99.80;;;;;;5014825;28;20033;-78
2023/09/29 11:15:09;;;;;;;2.30;2.00;;;25.80;99.90;;;;;;5014659;28;20552;-79
2023/09/29 11:17:50;;;;;;;4.70;2.08;;;25.70;99.70;;;;;;5014597;28;20116;-80
2023/09/29 11:20:27;;;;;;;5.13;2.22;;;25.90;98.70;;;;;;5032660;28;20030;-80
2023/09/29 11:23:11;;;;;;;2.67;1.92;;;26.20;98.20;;;;;;5016894;28;20045;-79
2023/09/29 11:25:49;;;;;;;3.20;2.38;;;26.30;98.40;;;;;;5040928;28;20022;-78
2023/09/29 11:28:16;;;;;;;4.72;2.45;;;26.40;96.90;;;;;;5028164;28;20014;-78
2023/09/29 11:30:42;;;;;;;2.75;1.58;;;26.40;97.10;;;;;;5027911;28;20026;-78
2023/09/29 11:33:12;;;;;;;3.05;1.85;;;26.20;96.90;;;;;;5044848;28;20305;-78
2023/09/29 11:35:41;;;;;;;2.53;1.75;;;26.00;97.00;;;;;;5044719;28;20029;-77
2023/09/29 11:38:07;;;;;;;1.98;1.60;;;26.10;96.40;;;;;;5026672;28;20036;-77
2023/09/29 11:40:33;;;;;;;1.88;1.77;;;26.20;97.10;;;;;;5024823;28;20092;-78
2023/09/29 11:42:59;;;;;;;5.90;2.05;;;26.30;96.00;;;;;;5037896;28;20048;-77
2023/09/29 11:45:25;;;;;;;4.63;1.90;;;26.50;94.90;;;;;;5039867;28;20025;-77
2023/09/29 11:47:51;;;;;;;3.33;1.60;;;26.70;94.60;;;;;;5017755;28;20026;-78
2023/09/29 11:50:18;;;;;;;2.00;1.80;;;26.80;94.10;;;;;;5035478;28;20460;-78
2023/09/29 11:52:43;;;;;;;2.55;1.63;;;27.00;93.50;;;;;;5035726;28;20021;-78
2023/09/29 11:55:13;;;;;;;5.65;1.58;;;27.00;93.60;;;;;;5035662;28;20094;-78
2023/09/29 11:57:40;;;;;;;3.67;1.25;;;27.20;94.20;;;;;;5044680;28;20033;-78
2023/09/29 12:00:08;;;;;;;1.27;1.08;;;27.50;93.00;;;;;;5052412;28;20381;-77
2023/09/29 12:02:35;;;;;;;2.47;1.70;;;27.40;90.40;;;;;;5036981;28;20021;-78
2023/09/29 12:05:04;;;;;;;1.83;1.50;;;27.30;90.40;;;;;;5035312;28;20030;-79
2023/09/29 12:07:31;;;;;;;3.13;2.28;;;27.40;88.00;;;;;;5035372;28;20018;-78
2023/09/29 12:09:57;;;;;;;2.28;1.63;;;27.30;88.20;;;;;;5035168;28;20108;-78
2023/09/29 12:12:22;;;;;;;1.67;1.50;;;27.70;87.30;;;;;;5034926;28;20072;-78
2023/09/29 12:14:48;;;;;;;4.47;1.65;;;27.70;86.40;;;;;;5016943;28;20558;-78
2023/09/29 12:17:14;;;;;;;1.40;1.30;;;27.30;84.90;;;;;;5034968;28;20032;-78
2023/09/29 12:19:39;;;;;;;1.40;1.20;;;27.70;86.60;;;;;;5035001;28;20029;-78
2023/09/29 12:22:05;;;;;;;3.15;1.73;;;27.40;88.30;;;;;;5034866;28;20045;-78
2023/09/29 12:24:31;;;;;;;4.32;1.67;;;27.40;87.70;;;;;;5035100;28;20099;-78
2023/09/29 12:26:58;;;;;;;2.35;1.30;;;27.50;89.90;;;;;;5034864;28;20022;-78
2023/09/29 12:29:24;;;;;;;2.83;1.73;;;28.10;89.80;;;;;;5016949;28;20312;-78
2023/09/29 12:31:49;;;;;;;3.75;1.25;;;29.00;87.30;;;;;;5034525;28;20025;-79
2023/09/29 12:34:16;;;;;;;1.45;1.23;;;30.00;83.30;;;;;;5034578;28;20539;-79
2023/09/29 12:36:41;;;;;;;3.97;1.33;;;30.60;84.00;;;;;;5016870;28;20025;-77
2023/09/29 12:39:10;;;;;;;1.27;1.17;;;31.00;79.20;;;;;;5034634;28;20029;-78
2023/09/29 12:41:37;;;;;;;3.55;1.00;;;31.30;78.40;;;;;;5034712;28;20029;-78
2023/09/29 12:44:04;;;;;;;2.38;1.67;;;32.20;76.40;;;;;;5034446;28;20044;-78
2023/09/29 12:46:30;;;;;;;1.70;1.60;;;30.60;76.10;;;;;;5034595;28;20521;-79
2023/09/29 12:48:55;;;;;;;1.42;1.13;;;29.50;79.70;;;;;;5034273;28;20021;-79
2023/09/29 12:51:22;;;;;;;3.38;1.63;;;30.50;81.10;;;;;;5034460;28;20402;-78
2023/09/29 12:53:49;;;;;;;2.03;1.70;;;32.10;78.50;;;;;;5039135;28;20079;-79
2023/09/29 12:56:18;;;;;;;4.20;1.90;;;32.60;73.50;;;;;;5036649;28;20032;-78